Time;durP1;ratioP1;P1;durP2;ratioP2;P2;SDS_P1;SDS_P2;PMS_P1;PMS_P2;Temp;Humidity;BMP_temperature;BMP_pressure;BME280_temperature;BME280_humidity;BME280_pressure;Samples;Min_cycle;Max_cycle;Signal;HPM_P1;HPM_P2
2022/01/06 00:01:52;;;;;;;;;;;;;;;11.17;47.94;101642.75;5063425;28;19924;-81
2022/01/06 00:04:17;;;;;;;;;;;;;;;11.45;47.11;101641.72;5066296;28;19956;-81
2022/01/06 00:06:43;;;;;;;;;;;;;;;12.14;46.47;101641.72;5065748;28;19917;-82
2022/01/06 00:09:10;;;;;;;;;;;;;;;12.07;47.05;101653.75;5083808;28;19917;-81
2022/01/06 00:11:36;;;;;;;;;;;;;;;12.21;46.79;101655.88;5064584;28;19963;-80
2022/01/06 00:16:47;;;;;;;;;;;;;;;11.22;48.62;101658.84;5083057;28;20008;-81
2022/01/06 00:24:27;;;;;;;;;;;;;;;11.12;48.86;101664.59;5083146;28;19923;-80
2022/01/06 00:26:52;;;;;;;;;;;;;;;11.29;48.16;101664.00;5065200;28;20022;-80
2022/01/06 00:29:18;;;;;;;;;;;;;;;11.14;48.34;101665.44;5064188;28;20187;-80
2022/01/06 00:31:43;;;;;;;;;;;;;;;11.36;48.66;101661.91;5064644;28;19916;-80
2022/01/06 00:34:10;;;;;;;;;;;;;;;11.26;48.81;101663.19;5063432;28;19994;-81
2022/01/06 00:36:39;;;;;;;;;;;;;;;10.62;49.88;101667.28;5081660;28;19916;-78
2022/01/06 00:39:05;;;;;;;;;;;;;;;10.87;49.18;101663.72;5063632;28;19917;-80
2022/01/06 00:41:33;;;;;;;;;;;;;;;10.67;49.37;101662.59;5081418;28;19925;-80
2022/01/06 00:43:58;;;;;;;;;;;;;;;11.05;48.35;101667.59;5082144;28;19916;-80
2022/01/06 00:46:24;;;;;;;;;;;;;;;11.33;47.26;101670.16;5063689;28;20017;-79
2022/01/06 00:48:49;;;;;;;;;;;;;;;10.82;48.29;101669.28;5063555;28;19924;-79
2022/01/06 00:51:14;;;;;;;;;;;;;;;11.38;46.11;101672.69;5062453;28;19924;-79
2022/01/06 00:53:39;;;;;;;;;;;;;;;11.11;47.51;101664.66;5062192;28;19942;-80
2022/01/06 00:56:04;;;;;;;;;;;;;;;11.29;46.56;101677.53;5080763;28;20007;-80
2022/01/06 00:58:30;;;;;;;;;;;;;;;10.79;48.06;101667.59;5063387;28;20354;-80
2022/01/06 01:00:55;;;;;;;;;;;;;;;10.60;48.22;101675.47;5063878;28;19921;-80
2022/01/06 01:03:21;;;;;;;;;;;;;;;11.27;46.56;101678.53;5062921;28;19932;-79
2022/01/06 01:05:48;;;;;;;;;;;;;;;11.54;46.14;101679.31;5062694;28;19920;-80
2022/01/06 01:08:13;;;;;;;;;;;;;;;11.49;46.09;101690.31;5062357;28;19963;-80
2022/01/06 01:10:39;;;;;;;;;;;;;;;11.30;46.75;101690.13;5062324;28;19924;-80
2022/01/06 01:13:07;;;;;;;;;;;;;;;11.17;47.39;101689.69;5081217;28;19967;-80
2022/01/06 01:15:34;;;;;;;;;;;;;;;11.72;46.29;101688.56;5063788;28;19920;-80
2022/01/06 01:18:06;;;;;;;;;;;;;;;11.75;46.39;101687.56;5063131;28;19923;-80
2022/01/06 01:20:32;;;;;;;;;;;;;;;11.59;46.45;101695.38;5062288;28;20362;-80
2022/01/06 01:22:57;;;;;;;;;;;;;;;11.44;47.26;101699.56;5079839;28;19926;-80
2022/01/06 01:25:22;;;;;;;;;;;;;;;11.37;47.19;101698.91;5080318;28;19916;-80
2022/01/06 01:27:48;;;;;;;;;;;;;;;12.14;45.84;101706.81;5062310;28;20010;-80
2022/01/06 01:30:14;;;;;;;;;;;;;;;11.84;46.14;101707.03;5062026;28;19916;-81
2022/01/06 01:32:45;;;;;;;;;;;;;;;12.24;45.64;101707.31;5080325;28;19920;-80
2022/01/06 01:35:10;;;;;;;;;;;;;;;12.49;44.52;101707.19;5062119;28;19983;-80
2022/01/06 01:37:36;;;;;;;;;;;;;;;12.22;45.97;101714.63;5080760;28;20020;-80
2022/01/06 01:40:03;;;;;;;;;;;;;;;12.35;45.28;101709.56;5063148;28;19901;-82
2022/01/06 01:42:28;;;;;;;;;;;;;;;12.29;45.44;101712.53;5063524;28;19924;-81
2022/01/06 01:44:53;;;;;;;;;;;;;;;12.09;45.56;101714.22;5061808;28;19917;-80
2022/01/06 01:47:30;;;;;;;;;;;;;;;12.00;45.74;101709.19;5062440;28;19944;-80
2022/01/06 01:50:09;;;;;;;;;;;;;;;12.01;46.50;101722.69;5062344;28;19976;-80
2022/01/06 01:52:34;;;;;;;;;;;;;;;11.25;47.80;101721.91;5080018;28;19917;-80
2022/01/06 01:55:00;;;;;;;;;;;;;;;11.35;47.75;101733.28;5080683;28;19920;-79
2022/01/06 01:57:26;;;;;;;;;;;;;;;11.24;47.70;101736.41;5063230;28;19963;-81
2022/01/06 01:59:51;;;;;;;;;;;;;;;11.67;47.33;101742.94;5080941;28;19958;-81
2022/01/06 02:02:16;;;;;;;;;;;;;;;11.88;46.01;101732.19;5080378;28;19923;-80
2022/01/06 02:04:42;;;;;;;;;;;;;;;11.28;47.41;101738.06;5063367;28;19924;-80
2022/01/06 02:07:07;;;;;;;;;;;;;;;11.70;46.45;101734.69;5062118;28;19924;-80
2022/01/06 02:09:32;;;;;;;;;;;;;;;12.12;45.53;101741.22;5062669;28;20435;-80
2022/01/06 02:11:57;;;;;;;;;;;;;;;12.21;45.24;101743.59;5080913;28;19923;-81
2022/01/06 02:14:25;;;;;;;;;;;;;;;12.26;45.61;101743.41;5063171;28;19983;-79
2022/01/06 02:16:53;;;;;;;;;;;;;;;12.29;45.59;101751.44;5063306;28;20297;-80
2022/01/06 02:19:18;;;;;;;;;;;;;;;12.17;46.07;101749.22;5062734;28;19920;-80
2022/01/06 02:21:44;;;;;;;;;;;;;;;12.10;46.04;101744.97;5062233;28;19939;-80
2022/01/06 02:24:09;;;;;;;;;;;;;;;12.12;46.10;101749.38;5061677;28;20313;-80
2022/01/06 02:26:34;;;;;;;;;;;;;;;11.91;46.72;101748.34;5062047;28;19932;-80
2022/01/06 02:28:59;;;;;;;;;;;;;;;11.80;46.99;101753.31;5062266;28;20403;-80
2022/01/06 02:31:25;;;;;;;;;;;;;;;11.82;47.09;101751.41;5062288;28;20330;-81
2022/01/06 02:33:51;;;;;;;;;;;;;;;11.87;47.28;101755.72;5062138;28;19924;-80
2022/01/06 02:36:16;;;;;;;;;;;;;;;11.49;48.03;101765.31;5061897;28;19916;-79
2022/01/06 02:38:41;;;;;;;;;;;;;;;11.48;48.73;101767.13;5062091;28;20017;-81
2022/01/06 02:41:07;;;;;;;;;;;;;;;11.14;49.10;101773.78;5078828;28;20546;-80
2022/01/06 02:43:32;;;;;;;;;;;;;;;11.68;47.64;101773.63;5061772;28;19923;-80
2022/01/06 02:45:58;;;;;;;;;;;;;;;11.87;47.36;101776.53;5079808;28;19972;-79
2022/01/06 02:48:23;;;;;;;;;;;;;;;12.16;46.59;101780.00;5062788;28;20360;-80
2022/01/06 02:50:49;;;;;;;;;;;;;;;11.97;46.85;101790.66;5081645;28;19917;-80
2022/01/06 02:53:15;;;;;;;;;;;;;;;11.91;46.74;101780.88;5080392;28;20297;-80
2022/01/06 02:55:42;;;;;;;;;;;;;;;12.04;47.35;101778.63;5061527;28;19920;-80
2022/01/06 02:58:08;;;;;;;;;;;;;;;11.74;48.22;101777.94;5079833;28;19927;-80
2022/01/06 03:00:35;;;;;;;;;;;;;;;12.04;47.60;101781.34;5061497;28;19921;-80
2022/01/06 03:03:00;;;;;;;;;;;;;;;12.39;46.65;101777.25;5062238;28;19999;-80
2022/01/06 03:05:26;;;;;;;;;;;;;;;12.30;47.08;101777.59;5062398;28;20355;-80
2022/01/06 03:07:51;;;;;;;;;;;;;;;12.30;46.68;101769.47;5062162;28;19904;-80
2022/01/06 03:10:16;;;;;;;;;;;;;;;12.35;46.68;101774.69;5079723;28;20003;-79
2022/01/06 03:12:43;;;;;;;;;;;;;;;12.22;47.33;101768.91;5060688;28;19916;-80
2022/01/06 03:15:13;;;;;;;;;;;;;;;12.33;47.22;101772.03;5061546;28;19924;-80
2022/01/06 03:17:39;;;;;;;;;;;;;;;12.07;47.75;101772.22;5062246;28;20404;-80
2022/01/06 03:20:06;;;;;;;;;;;;;;;12.25;47.04;101774.19;5062552;28;19917;-80
2022/01/06 03:22:31;;;;;;;;;;;;;;;12.04;48.11;101781.34;5061256;28;19927;-80
2022/01/06 03:24:56;;;;;;;;;;;;;;;12.15;47.65;101783.63;5060794;28;19999;-80
2022/01/06 03:27:23;;;;;;;;;;;;;;;10.61;50.91;101793.59;5061510;28;19917;-79
2022/01/06 03:29:50;;;;;;;;;;;;;;;11.34;50.23;101781.19;5078895;28;19912;-81
2022/01/06 03:32:15;;;;;;;;;;;;;;;11.42;49.43;101777.31;5078399;28;19921;-80
2022/01/06 03:34:40;;;;;;;;;;;;;;;11.57;49.05;101782.16;5061174;28;20397;-80
2022/01/06 03:37:06;;;;;;;;;;;;;;;11.77;48.35;101772.41;5061423;28;20382;-80
2022/01/06 03:39:31;;;;;;;;;;;;;;;11.50;48.80;101786.03;5060732;28;20008;-80
2022/01/06 03:41:56;;;;;;;;;;;;;;;10.17;52.91;101795.84;5060806;28;19920;-80
2022/01/06 03:44:22;;;;;;;;;;;;;;;9.66;55.12;101794.66;5061338;28;20340;-80
2022/01/06 03:46:47;;;;;;;;;;;;;;;9.92;55.16;101796.59;5061174;28;19923;-80
2022/01/06 03:49:12;;;;;;;;;;;;;;;10.46;54.01;101802.19;5060963;28;19916;-79
2022/01/06 03:51:37;;;;;;;;;;;;;;;10.56;53.56;101806.38;5079259;28;19916;-80
2022/01/06 03:54:03;;;;;;;;;;;;;;;10.32;54.20;101808.00;5061083;28;20332;-79
2022/01/06 03:56:28;;;;;;;;;;;;;;;11.03;52.34;101805.72;5060457;28;19916;-80
2022/01/06 03:58:53;;;;;;;;;;;;;;;10.64;52.96;101807.03;5079343;28;19927;-80
2022/01/06 04:01:19;;;;;;;;;;;;;;;11.09;51.71;101810.06;5060408;28;19921;-79
2022/01/06 04:03:47;;;;;;;;;;;;;;;11.38;50.92;101808.16;5060152;28;19921;-80
2022/01/06 04:06:12;;;;;;;;;;;;;;;10.92;51.61;101811.53;5078324;28;19916;-80
2022/01/06 04:08:37;;;;;;;;;;;;;;;11.29;50.91;101821.09;5060725;28;19917;-80
2022/01/06 04:11:03;;;;;;;;;;;;;;;11.12;51.51;101816.25;5078351;28;19919;-80
2022/01/06 04:13:29;;;;;;;;;;;;;;;11.28;50.76;101813.91;5061026;28;19916;-80
2022/01/06 04:15:54;;;;;;;;;;;;;;;10.90;51.96;101813.41;5060839;28;20259;-80
2022/01/06 04:18:19;;;;;;;;;;;;;;;11.33;50.30;101808.31;5059398;28;20010;-80
2022/01/06 04:20:44;;;;;;;;;;;;;;;10.98;51.56;101810.44;5060692;28;19958;-81
2022/01/06 04:23:10;;;;;;;;;;;;;;;11.38;50.41;101813.56;5060372;28;19925;-80
2022/01/06 04:25:35;;;;;;;;;;;;;;;10.79;51.46;101811.06;5062723;28;19916;-80
2022/01/06 04:28:00;;;;;;;;;;;;;;;11.22;50.44;101811.41;5063640;28;19920;-80
2022/01/06 04:30:25;;;;;;;;;;;;;;;11.53;49.19;101816.63;5064128;28;19926;-80
2022/01/06 04:32:52;;;;;;;;;;;;;;;11.24;50.09;101828.50;5081132;28;19929;-80
2022/01/06 04:35:17;;;;;;;;;;;;;;;11.35;49.61;101831.72;5081621;28;19917;-80
2022/01/06 04:37:42;;;;;;;;;;;;;;;11.39;48.97;101827.06;5064009;28;19923;-80
2022/01/06 04:40:08;;;;;;;;;;;;;;;11.47;49.29;101834.91;5082287;28;19916;-81
2022/01/06 04:42:33;;;;;;;;;;;;;;;11.69;49.10;101826.91;5064728;28;19960;-81
2022/01/06 04:44:59;;;;;;;;;;;;;;;11.40;49.57;101827.94;5064880;28;19992;-80
2022/01/06 04:47:24;;;;;;;;;;;;;;;10.77;50.28;101826.44;5064739;28;19916;-80
2022/01/06 04:49:49;;;;;;;;;;;;;;;11.25;49.36;101834.81;5064595;28;19917;-80
2022/01/06 04:52:15;;;;;;;;;;;;;;;11.07;49.91;101828.19;5082933;28;19916;-80
2022/01/06 04:54:40;;;;;;;;;;;;;;;10.85;50.73;101830.72;5083231;28;19921;-80
2022/01/06 04:57:05;;;;;;;;;;;;;;;11.31;49.47;101835.47;5082183;28;20294;-79
2022/01/06 04:59:31;;;;;;;;;;;;;;;11.13;49.38;101834.28;5063614;28;20003;-81
2022/01/06 05:01:56;;;;;;;;;;;;;;;11.46;48.94;101838.59;5063277;28;19932;-79
2022/01/06 05:04:21;;;;;;;;;;;;;;;11.63;48.64;101840.69;5062903;28;20372;-80
2022/01/06 05:06:46;;;;;;;;;;;;;;;11.36;48.90;101832.59;5080279;28;19916;-81
2022/01/06 05:09:12;;;;;;;;;;;;;;;10.81;50.82;101851.63;5081223;28;19916;-79
2022/01/06 05:11:37;;;;;;;;;;;;;;;10.59;51.57;101852.28;5063431;28;19917;-80
2022/01/06 05:14:02;;;;;;;;;;;;;;;10.68;51.27;101850.22;5063024;28;19912;-79
2022/01/06 05:16:27;;;;;;;;;;;;;;;11.01;50.66;101852.78;5063672;28;19928;-79
2022/01/06 05:18:53;;;;;;;;;;;;;;;11.53;49.04;101849.16;5064017;28;19916;-79
2022/01/06 05:21:18;;;;;;;;;;;;;;;11.49;49.42;101849.31;5063620;28;19917;-80
2022/01/06 05:23:43;;;;;;;;;;;;;;;11.32;49.17;101860.72;5063533;28;19917;-80
2022/01/06 05:26:09;;;;;;;;;;;;;;;11.40;49.27;101853.22;5082322;28;19917;-80
2022/01/06 05:28:34;;;;;;;;;;;;;;;11.44;48.94;101856.72;5063745;28;20318;-79
2022/01/06 05:31:00;;;;;;;;;;;;;;;11.64;48.29;101851.47;5064587;28;19920;-80
2022/01/06 05:33:26;;;;;;;;;;;;;;;11.56;47.87;101845.44;5082256;28;19921;-80
2022/01/06 05:35:51;;;;;;;;;;;;;;;11.51;48.70;101847.44;5063818;28;19927;-81
2022/01/06 05:38:17;;;;;;;;;;;;;;;11.47;48.29;101849.38;5080858;28;20003;-80
2022/01/06 05:40:42;;;;;;;;;;;;;;;11.46;48.49;101847.59;5063142;28;19974;-80
2022/01/06 05:43:07;;;;;;;;;;;;;;;11.33;48.69;101848.97;5063947;28;20003;-81
2022/01/06 05:45:32;;;;;;;;;;;;;;;11.28;48.72;101851.84;5064134;28;20290;-81
2022/01/06 05:47:58;;;;;;;;;;;;;;;11.18;48.99;101843.13;5064835;28;19952;-80
2022/01/06 05:50:23;;;;;;;;;;;;;;;11.24;48.40;101855.56;5064936;28;19994;-80
2022/01/06 05:52:48;;;;;;;;;;;;;;;11.14;48.63;101860.44;5063324;28;19923;-80
2022/01/06 05:55:14;;;;;;;;;;;;;;;11.11;48.52;101855.13;5063428;28;20421;-80
2022/01/06 05:57:39;;;;;;;;;;;;;;;11.11;49.35;101867.75;5063519;28;19987;-80
2022/01/06 06:00:05;;;;;;;;;;;;;;;11.01;49.23;101869.03;5080092;28;19923;-80
2022/01/06 06:02:31;;;;;;;;;;;;;;;11.01;49.13;101872.59;5080162;28;19931;-80
2022/01/06 06:04:56;;;;;;;;;;;;;;;11.06;49.18;101870.63;5062087;28;19917;-80
2022/01/06 06:07:21;;;;;;;;;;;;;;;10.94;49.49;101876.44;5062236;28;20023;-79
2022/01/06 06:09:47;;;;;;;;;;;;;;;11.02;48.86;101874.38;5061187;28;19958;-79
2022/01/06 06:12:12;;;;;;;;;;;;;;;11.12;48.80;101885.78;5061872;28;19939;-80
2022/01/06 06:14:38;;;;;;;;;;;;;;;10.93;48.88;101883.69;5061831;28;19920;-80
2022/01/06 06:17:03;;;;;;;;;;;;;;;10.72;49.29;101889.78;5061284;28;19935;-80
2022/01/06 06:19:28;;;;;;;;;;;;;;;10.89;49.33;101887.44;5061438;28;19924;-79
2022/01/06 06:21:53;;;;;;;;;;;;;;;10.95;48.77;101891.75;5061067;28;19955;-79
2022/01/06 06:24:20;;;;;;;;;;;;;;;10.95;48.74;101887.22;5078598;28;19993;-80
2022/01/06 06:26:45;;;;;;;;;;;;;;;10.88;48.31;101896.47;5078087;28;19923;-79
2022/01/06 06:29:10;;;;;;;;;;;;;;;10.56;48.99;101900.22;5060368;28;19917;-79
2022/01/06 06:31:36;;;;;;;;;;;;;;;10.37;49.78;101910.69;5060354;28;20031;-80
2022/01/06 06:34:01;;;;;;;;;;;;;;;9.54;52.25;101917.44;5078526;28;19920;-79
2022/01/06 06:36:26;;;;;;;;;;;;;;;9.31;53.10;101918.00;5060466;28;19958;-79
2022/01/06 06:38:51;;;;;;;;;;;;;;;9.60;52.37;101921.78;5060268;28;20370;-79
2022/01/06 06:41:16;;;;;;;;;;;;;;;9.27;53.04;101927.16;5058990;28;20007;-79
2022/01/06 06:43:42;;;;;;;;;;;;;;;9.91;51.82;101927.25;5059368;28;19959;-80
2022/01/06 06:46:07;;;;;;;;;;;;;;;10.31;50.53;101924.34;5058315;28;19923;-80
2022/01/06 06:48:32;;;;;;;;;;;;;;;10.64;49.66;101934.22;5076116;28;19916;-79
2022/01/06 06:51:00;;;;;;;;;;;;;;;10.73;49.05;101930.31;5058358;28;19917;-80
2022/01/06 06:53:25;;;;;;;;;;;;;;;10.77;48.90;101931.13;5059135;28;19923;-80
2022/01/06 06:55:50;;;;;;;;;;;;;;;10.86;48.74;101930.84;5059198;28;19920;-79
2022/01/06 06:58:15;;;;;;;;;;;;;;;10.61;49.31;101928.91;5058004;28;19928;-80
2022/01/06 07:00:41;;;;;;;;;;;;;;;10.72;49.55;101935.78;5076442;28;19924;-81
2022/01/06 07:03:07;;;;;;;;;;;;;;;10.64;49.54;101928.81;5058444;28;19921;-81
2022/01/06 07:05:32;;;;;;;;;;;;;;;10.72;49.08;101927.66;5057956;28;20374;-80
2022/01/06 07:07:57;;;;;;;;;;;;;;;10.69;49.15;101925.06;5057502;28;19911;-80
2022/01/06 07:10:22;;;;;;;;;;;;;;;10.85;48.16;101926.34;5058171;28;19924;-80
2022/01/06 07:12:48;;;;;;;;;;;;;;;10.74;48.89;101931.22;5057292;28;19963;-80
2022/01/06 07:15:17;;;;;;;;;;;;;;;10.01;50.46;101927.00;5057610;28;19988;-80
2022/01/06 07:17:42;;;;;;;;;;;;;;;10.11;50.92;101932.13;5058437;28;19977;-79
2022/01/06 07:20:08;;;;;;;;;;;;;;;10.49;49.89;101931.94;5057690;28;20388;-81
2022/01/06 07:22:33;;;;;;;;;;;;;;;10.54;49.79;101931.84;5058182;28;19917;-81
2022/01/06 07:25:01;;;;;;;;;;;;;;;10.54;49.55;101927.31;5076200;28;19987;-83
2022/01/06 07:27:26;;;;;;;;;;;;;;;10.83;48.88;101939.06;5056758;28;19917;-82
2022/01/06 07:29:51;;;;;;;;;;;;;;;10.87;48.45;101932.63;5057976;28;19917;-79
2022/01/06 07:32:18;;;;;;;;;;;;;;;10.71;48.63;101942.16;5057681;28;19922;-79
2022/01/06 07:34:43;;;;;;;;;;;;;;;10.48;49.68;101946.44;5057978;28;20331;-81
2022/01/06 07:37:08;;;;;;;;;;;;;;;10.66;49.41;101947.69;5075338;28;20373;-82
2022/01/06 07:39:33;;;;;;;;;;;;;;;10.46;49.60;101948.28;5057568;28;20349;-81
2022/01/06 07:41:59;;;;;;;;;;;;;;;10.62;49.40;101946.88;5075260;28;20018;-81
2022/01/06 07:44:24;;;;;;;;;;;;;;;10.27;49.92;101954.19;5074317;28;20289;-81
2022/01/06 07:46:50;;;;;;;;;;;;;;;10.46;49.60;101957.31;5057251;28;20261;-82
2022/01/06 07:49:15;;;;;;;;;;;;;;;10.68;49.52;101964.78;5055831;28;20304;-81
2022/01/06 07:51:41;;;;;;;;;;;;;;;10.77;49.29;101961.78;5073821;28;19921;-81
2022/01/06 07:54:06;;;;;;;;;;;;;;;11.03;48.47;101960.09;5056227;28;19921;-81
2022/01/06 07:56:32;;;;;;;;;;;;;;;10.88;48.38;101958.75;5055803;28;19939;-81
2022/01/06 07:58:58;;;;;;;;;;;;;;;10.94;48.14;101963.97;5055513;28;19967;-81
2022/01/06 08:01:23;;;;;;;;;;;;;;;10.92;48.51;101965.84;5059963;28;19920;-81
2022/01/06 08:03:49;;;;;;;;;;;;;;;10.66;48.55;101968.44;5062355;28;19920;-80
2022/01/06 08:06:15;;;;;;;;;;;;;;;10.54;49.69;101973.31;5062212;28;19928;-81
2022/01/06 08:08:40;;;;;;;;;;;;;;;10.87;48.74;101970.53;5080451;28;19923;-82
2022/01/06 08:11:05;;;;;;;;;;;;;;;10.88;48.78;101983.09;5062018;28;19999;-81
2022/01/06 08:13:31;;;;;;;;;;;;;;;10.67;49.51;101976.53;5080514;28;19924;-81
2022/01/06 08:15:56;;;;;;;;;;;;;;;10.85;48.90;101977.78;5061409;28;19924;-82
2022/01/06 08:18:21;;;;;;;;;;;;;;;10.62;49.45;101982.06;5060929;28;19921;-82
2022/01/06 08:20:46;;;;;;;;;;;;;;;10.20;50.88;101985.03;5079823;28;20369;-82
2022/01/06 08:23:12;;;;;;;;;;;;;;;9.72;52.27;101980.94;5078963;28;19920;-81
2022/01/06 08:25:37;;;;;;;;;;;;;;;10.23;50.86;101990.38;5061105;28;19916;-83
2022/01/06 08:28:03;;;;;;;;;;;;;;;9.86;51.93;101988.66;5060448;28;19984;-82
2022/01/06 08:30:29;;;;;;;;;;;;;;;9.72;53.22;102002.53;5060741;28;20389;-82
2022/01/06 08:32:55;;;;;;;;;;;;;;;9.55;53.67;101997.53;5060496;28;19925;-82
2022/01/06 08:35:20;;;;;;;;;;;;;;;9.81;53.01;101998.69;5079559;28;20515;-81
2022/01/06 08:37:46;;;;;;;;;;;;;;;10.10;52.47;101997.06;5078670;28;19916;-81
2022/01/06 08:40:11;;;;;;;;;;;;;;;10.04;52.93;101997.19;5060831;28;19929;-80
2022/01/06 08:42:37;;;;;;;;;;;;;;;10.22;52.76;101999.44;5060787;28;20362;-83
2022/01/06 08:45:02;;;;;;;;;;;;;;;10.58;51.77;102003.84;5057864;28;20374;-80
2022/01/06 08:47:29;;;;;;;;;;;;;;;10.50;51.52;101990.56;5050647;28;20255;-81
2022/01/06 08:49:54;;;;;;;;;;;;;;;10.65;51.81;102002.75;5059522;28;19916;-81
2022/01/06 08:52:20;;;;;;;;;;;;;;;10.42;51.95;102008.84;5061169;28;19924;-81
2022/01/06 08:54:45;;;;;;;;;;;;;;;11.02;50.72;102004.38;5061329;28;19916;-83
2022/01/06 08:57:10;;;;;;;;;;;;;;;11.25;50.22;102000.06;5079005;28;19921;-81
2022/01/06 08:59:36;;;;;;;;;;;;;;;11.85;48.87;102006.16;5060973;28;19917;-81
2022/01/06 09:02:01;;;;;;;;;;;;;;;12.38;47.37;101986.28;5078819;28;19952;-81
2022/01/06 09:04:26;;;;;;;;;;;;;;;12.33;47.24;101990.97;5060609;28;19965;-81
2022/01/06 09:06:52;;;;;;;;;;;;;;;12.51;47.36;101990.28;5078768;28;19916;-81
2022/01/06 09:09:18;;;;;;;;;;;;;;;12.61;46.74;101990.81;5078277;28;19970;-81
2022/01/06 09:11:43;;;;;;;;;;;;;;;12.66;46.66;101993.38;5061100;28;20599;-81
2022/01/06 09:14:09;;;;;;;;;;;;;;;13.39;45.56;101988.72;5060760;28;19994;-80
2022/01/06 09:16:34;;;;;;;;;;;;;;;13.42;45.49;101992.19;5078690;28;20043;-81
2022/01/06 09:18:59;;;;;;;;;;;;;;;13.10;46.12;101988.94;5077020;28;19956;-81
2022/01/06 09:21:24;;;;;;;;;;;;;;;13.10;46.67;101991.66;5058842;28;19923;-83
2022/01/06 09:23:51;;;;;;;;;;;;;;;12.41;47.53;101997.88;5060025;28;20007;-83
2022/01/06 09:26:16;;;;;;;;;;;;;;;12.38;48.54;102002.56;5059865;28;19927;-81
2022/01/06 09:28:41;;;;;;;;;;;;;;;12.68;48.30;101989.66;5059570;28;19942;-82
2022/01/06 09:31:06;;;;;;;;;;;;;;;13.06;46.57;101990.00;5058450;28;19909;-82
2022/01/06 09:33:32;;;;;;;;;;;;;;;12.72;46.97;101999.44;5059297;28;19921;-82
2022/01/06 09:35:57;;;;;;;;;;;;;;;13.13;46.65;101998.75;5058938;28;19916;-81
2022/01/06 09:38:22;;;;;;;;;;;;;;;13.24;46.05;102001.06;5077468;28;19912;-83
2022/01/06 09:40:48;;;;;;;;;;;;;;;13.59;45.96;101998.78;5077059;28;20369;-83
2022/01/06 09:43:13;;;;;;;;;;;;;;;12.48;47.67;102003.09;5059050;28;20049;-82
2022/01/06 09:45:40;;;;;;;;;;;;;;;13.43;45.82;102004.81;5058491;28;19916;-82
2022/01/06 09:48:05;;;;;;;;;;;;;;;13.15;45.96;102009.56;5076409;28;19963;-82
2022/01/06 09:50:31;;;;;;;;;;;;;;;12.62;47.47;102010.72;5058459;28;19917;-80
2022/01/06 09:52:56;;;;;;;;;;;;;;;12.49;47.83;102016.59;5057501;28;19916;-80
2022/01/06 09:55:21;;;;;;;;;;;;;;;12.86;47.52;102008.88;5075215;28;19932;-80
2022/01/06 09:58:05;;;;;;;;;;;;;;;12.30;48.02;102021.81;5077260;28;19917;-80
2022/01/06 10:00:32;;;;;;;;;;;;;;;11.65;48.91;102018.56;5077333;28;20453;-80
2022/01/06 10:02:58;;;;;;;;;;;;;;;12.07;48.61;102017.19;5077777;28;19924;-81
2022/01/06 10:05:24;;;;;;;;;;;;;;;12.26;47.13;102014.72;5060989;28;19948;-81
2022/01/06 10:07:49;;;;;;;;;;;;;;;12.64;47.43;102006.13;5060112;28;19916;-81
2022/01/06 10:10:15;;;;;;;;;;;;;;;13.09;47.09;102013.44;5077456;28;19916;-81
2022/01/06 10:12:41;;;;;;;;;;;;;;;13.19;46.91;102016.66;5060141;28;19920;-81
2022/01/06 10:15:17;;;;;;;;;;;;;;;13.80;46.05;102014.19;5058186;28;20003;-81
2022/01/06 10:17:43;;;;;;;;;;;;;;;13.71;45.83;102019.09;5058712;28;19917;-81
2022/01/06 10:20:15;;;;;;;;;;;;;;;11.97;49.97;102018.47;5076911;28;19924;-81
2022/01/06 10:22:45;;;;;;;;;;;;;;;12.93;48.27;102007.72;5076262;28;19917;-82
2022/01/06 10:25:10;;;;;;;;;;;;;;;13.37;47.88;102006.91;5077229;28;19916;-81
2022/01/06 10:27:37;;;;;;;;;;;;;;;13.00;48.53;102005.63;5059208;28;19916;-81
2022/01/06 10:30:04;;;;;;;;;;;;;;;12.37;48.76;102011.63;5058616;28;19917;-81
2022/01/06 10:32:31;;;;;;;;;;;;;;;12.97;48.16;102012.09;5059005;28;19950;-81
2022/01/06 10:34:56;;;;;;;;;;;;;;;13.33;48.73;102003.41;5058338;28;19980;-81
2022/01/06 10:37:41;;;;;;;;;;;;;;;13.39;47.59;102005.91;5058797;28;19975;-81
2022/01/06 10:40:22;;;;;;;;;;;;;;;13.16;48.82;102005.91;5057695;28;19916;-81
2022/01/06 10:42:50;;;;;;;;;;;;;;;12.97;47.80;102005.75;5058154;28;19924;-81
2022/01/06 10:45:17;;;;;;;;;;;;;;;13.33;47.29;102002.50;5075591;28;19940;-81
2022/01/06 10:47:47;;;;;;;;;;;;;;;14.54;44.86;101996.44;5059127;28;20332;-81
2022/01/06 10:50:13;;;;;;;;;;;;;;;14.20;45.52;101997.94;5059137;28;19916;-79
2022/01/06 10:52:42;;;;;;;;;;;;;;;14.54;44.11;102002.75;5058489;28;20263;-81
2022/01/06 10:55:15;;;;;;;;;;;;;;;13.16;46.30;102005.91;5058533;28;20019;-82
2022/01/06 10:57:53;;;;;;;;;;;;;;;13.38;46.82;101993.28;5058488;28;19952;-81
2022/01/06 11:00:18;;;;;;;;;;;;;;;13.85;45.98;101989.50;5058612;28;19919;-81
2022/01/06 11:02:44;;;;;;;;;;;;;;;15.00;43.80;101990.69;5058430;28;19995;-81
2022/01/06 11:05:09;;;;;;;;;;;;;;;15.07;43.63;101986.72;5057945;28;19920;-81
2022/01/06 11:07:35;;;;;;;;;;;;;;;14.84;42.83;101986.00;5075355;28;19917;-82
2022/01/06 11:10:01;;;;;;;;;;;;;;;13.81;45.57;102002.34;5059105;28;19917;-82
2022/01/06 11:12:27;;;;;;;;;;;;;;;13.63;47.29;101993.16;5058253;28;19939;-81
2022/01/06 11:14:52;;;;;;;;;;;;;;;13.92;45.60;101990.09;5075913;28;20340;-81
2022/01/06 11:17:21;;;;;;;;;;;;;;;13.15;45.94;102002.34;5057774;28;20329;-79
2022/01/06 11:19:47;;;;;;;;;;;;;;;11.90;48.60;101996.06;5075838;28;19916;-80
2022/01/06 11:22:13;;;;;;;;;;;;;;;12.02;48.66;102011.06;5057821;28;20348;-80
2022/01/06 11:24:39;;;;;;;;;;;;;;;12.06;47.54;102007.28;5057705;28;19943;-80
2022/01/06 11:27:04;;;;;;;;;;;;;;;11.31;50.45;102008.84;5058504;28;19995;-80
2022/01/06 11:29:32;;;;;;;;;;;;;;;11.94;49.54;101996.88;5058319;28;19917;-80
2022/01/06 11:31:58;;;;;;;;;;;;;;;12.24;48.48;101992.19;5058473;28;19952;-80
2022/01/06 11:34:23;;;;;;;;;;;;;;;11.35;50.66;101993.38;5059160;28;20370;-80
2022/01/06 11:36:50;;;;;;;;;;;;;;;11.76;49.66;101987.50;5080653;28;20322;-80
2022/01/06 11:39:21;;;;;;;;;;;;;;;12.45;47.62;101995.94;5062037;28;20294;-81
2022/01/06 11:41:46;;;;;;;;;;;;;;;12.48;48.70;101992.22;5061061;28;19920;-81
2022/01/06 11:44:25;;;;;;;;;;;;;;;13.23;47.28;101993.88;5078328;28;19922;-81
2022/01/06 11:46:52;;;;;;;;;;;;;;;11.40;50.66;102004.06;5078616;28;19999;-82
2022/01/06 11:49:30;;;;;;;;;;;;;;;11.99;49.08;101986.75;5062121;28;19923;-81
2022/01/06 11:52:03;;;;;;;;;;;;;;;10.85;50.61;101988.63;5062447;28;19916;-81
2022/01/06 11:54:30;;;;;;;;;;;;;;;11.47;49.36;101986.66;5063399;28;19927;-81
2022/01/06 11:56:55;;;;;;;;;;;;;;;11.03;49.66;101987.16;5080412;28;19916;-80
2022/01/06 11:59:33;;;;;;;;;;;;;;;12.12;48.74;101988.06;5062644;28;20431;-80
2022/01/06 12:01:59;;;;;;;;;;;;;;;11.72;48.02;101988.56;5060664;28;19947;-80
2022/01/06 12:04:25;;;;;;;;;;;;;;;11.13;49.33;101985.06;5078297;28;19921;-81
2022/01/06 12:06:50;;;;;;;;;;;;;;;12.38;46.40;101979.00;5061569;28;19924;-80
2022/01/06 12:09:17;;;;;;;;;;;;;;;11.79;48.06;101966.63;5074727;28;20373;-82
2022/01/06 12:11:42;;;;;;;;;;;;;;;11.59;48.67;101975.41;5061276;28;19969;-82
2022/01/06 12:14:08;;;;;;;;;;;;;;;11.90;48.05;101966.25;5060287;28;20552;-81
2022/01/06 12:16:37;;;;;;;;;;;;;;;12.72;46.62;101964.13;5060470;28;20483;-81
2022/01/06 12:19:12;;;;;;;;;;;;;;;12.58;46.57;101951.09;5061066;28;19916;-81
2022/01/06 12:21:37;;;;;;;;;;;;;;;11.86;47.77;101957.31;5076200;28;20051;-81
2022/01/06 12:24:04;;;;;;;;;;;;;;;11.24;49.14;101955.81;5060376;28;19952;-80
2022/01/06 12:26:30;;;;;;;;;;;;;;;11.55;49.08;101952.09;5077319;28;20361;-80
2022/01/06 12:28:55;;;;;;;;;;;;;;;11.72;48.26;101943.38;5076721;28;19925;-81
2022/01/06 12:31:22;;;;;;;;;;;;;;;13.02;44.95;101934.00;5044113;28;19972;-80
2022/01/06 12:33:49;;;;;;;;;;;;;;;13.09;44.94;101935.53;5061101;28;19913;-80
2022/01/06 12:36:18;;;;;;;;;;;;;;;13.91;42.55;101939.38;5060832;28;20374;-81
2022/01/06 12:38:44;;;;;;;;;;;;;;;13.26;43.18;101942.97;5060978;28;19970;-81
2022/01/06 12:41:11;;;;;;;;;;;;;;;12.05;46.06;101945.88;5060708;28;19908;-81